sensor_id;sensor_type;location;lat;lon;timestamp;temperature;humidity
10344;DHT22;5217;43.960;10.954;2022-12-07T00:01:36;16.70;99.90
10344;DHT22;5217;43.960;10.954;2022-12-07T00:04:10;16.70;99.90
10344;DHT22;5217;43.960;10.954;2022-12-07T00:06:40;16.70;99.90
10344;DHT22;5217;43.960;10.954;2022-12-07T00:09:11;16.70;99.90
10344;DHT22;5217;43.960;10.954;2022-12-07T00:11:40;16.70;99.90
10344;DHT22;5217;43.960;10.954;2022-12-07T00:14:12;16.70;99.90
10344;DHT22;5217;43.960;10.954;2022-12-07T00:16:41;16.70;99.90
10344;DHT22;5217;43.960;10.954;2022-12-07T00:19:11;16.70;99.90
10344;DHT22;5217;43.960;10.954;2022-12-07T00:21:40;16.70;99.90
10344;DHT22;5217;43.960;10.954;2022-12-07T00:24:10;16.70;99.90
10344;DHT22;5217;43.960;10.954;2022-12-07T00:26:41;16.70;99.90
10344;DHT22;5217;43.960;10.954;2022-12-07T00:29:16;16.70;99.90
10344;DHT22;5217;43.960;10.954;2022-12-07T00:31:44;16.70;99.90
10344;DHT22;5217;43.960;10.954;2022-12-07T00:34:15;16.70;99.90
10344;DHT22;5217;43.960;10.954;2022-12-07T00:36:44;16.70;99.90
10344;DHT22;5217;43.960;10.954;2022-12-07T00:39:13;16.70;99.90
10344;DHT22;5217;43.960;10.954;2022-12-07T00:41:42;16.70;99.90
10344;DHT22;5217;43.960;10.954;2022-12-07T00:44:10;16.70;99.90
10344;DHT22;5217;43.960;10.954;2022-12-07T00:46:40;16.70;99.90
10344;DHT22;5217;43.960;10.954;2022-12-07T00:49:09;16.70;99.90
10344;DHT22;5217;43.960;10.954;2022-12-07T00:51:37;16.70;99.90
10344;DHT22;5217;43.960;10.954;2022-12-07T00:54:05;16.70;99.90
10344;DHT22;5217;43.960;10.954;2022-12-07T00:56:34;16.70;99.90
10344;DHT22;5217;43.960;10.954;2022-12-07T00:59:04;16.70;99.90
10344;DHT22;5217;43.960;10.954;2022-12-07T01:01:34;16.70;99.90
10344;DHT22;5217;43.960;10.954;2022-12-07T01:04:05;16.70;99.90
10344;DHT22;5217;43.960;10.954;2022-12-07T01:06:35;16.70;99.90
10344;DHT22;5217;43.960;10.954;2022-12-07T01:09:03;16.70;99.90
10344;DHT22;5217;43.960;10.954;2022-12-07T01:11:33;16.70;99.90
10344;DHT22;5217;43.960;10.954;2022-12-07T01:14:02;16.70;99.90
10344;DHT22;5217;43.960;10.954;2022-12-07T01:16:32;16.60;99.90
10344;DHT22;5217;43.960;10.954;2022-12-07T01:19:01;16.70;99.90
10344;DHT22;5217;43.960;10.954;2022-12-07T01:21:34;16.60;99.90
10344;DHT22;5217;43.960;10.954;2022-12-07T01:24:07;16.60;99.90
10344;DHT22;5217;43.960;10.954;2022-12-07T01:26:35;16.60;99.90
10344;DHT22;5217;43.960;10.954;2022-12-07T01:29:04;16.60;99.90
10344;DHT22;5217;43.960;10.954;2022-12-07T01:31:33;16.60;99.90
10344;DHT22;5217;43.960;10.954;2022-12-07T01:34:01;16.60;99.90
10344;DHT22;5217;43.960;10.954;2022-12-07T01:36:33;16.60;99.90
10344;DHT22;5217;43.960;10.954;2022-12-07T01:39:04;16.60;99.90
10344;DHT22;5217;43.960;10.954;2022-12-07T01:41:34;16.50;99.90
10344;DHT22;5217;43.960;10.954;2022-12-07T01:44:20;16.60;99.90
10344;DHT22;5217;43.960;10.954;2022-12-07T01:46:50;16.60;99.90
10344;DHT22;5217;43.960;10.954;2022-12-07T01:49:31;16.50;99.90
10344;DHT22;5217;43.960;10.954;2022-12-07T01:52:13;16.50;99.90
10344;DHT22;5217;43.960;10.954;2022-12-07T01:54:44;16.50;99.90
10344;DHT22;5217;43.960;10.954;2022-12-07T01:57:13;16.50;99.90
10344;DHT22;5217;43.960;10.954;2022-12-07T01:59:45;16.50;99.90
10344;DHT22;5217;43.960;10.954;2022-12-07T02:02:19;16.50;99.90
10344;DHT22;5217;43.960;10.954;2022-12-07T02:04:48;16.50;99.90
10344;DHT22;5217;43.960;10.954;2022-12-07T02:07:19;16.40;99.90
10344;DHT22;5217;43.960;10.954;2022-12-07T02:09:48;16.40;99.90
10344;DHT22;5217;43.960;10.954;2022-12-07T02:12:16;16.40;99.90
10344;DHT22;5217;43.960;10.954;2022-12-07T02:14:45;16.40;99.90
10344;DHT22;5217;43.960;10.954;2022-12-07T02:17:20;16.40;99.90
10344;DHT22;5217;43.960;10.954;2022-12-07T02:20:08;16.40;99.90
10344;DHT22;5217;43.960;10.954;2022-12-07T02:29:10;16.30;99.90
10344;DHT22;5217;43.960;10.954;2022-12-07T02:31:43;16.30;99.90
10344;DHT22;5217;43.960;10.954;2022-12-07T02:34:19;16.30;99.90
10344;DHT22;5217;43.960;10.954;2022-12-07T02:36:54;16.30;99.90
10344;DHT22;5217;43.960;10.954;2022-12-07T02:39:31;16.30;99.90
10344;DHT22;5217;43.960;10.954;2022-12-07T02:42:07;16.30;99.90
10344;DHT22;5217;43.960;10.954;2022-12-07T02:44:39;16.30;99.90
10344;DHT22;5217;43.960;10.954;2022-12-07T02:47:12;16.30;99.90
10344;DHT22;5217;43.960;10.954;2022-12-07T02:49:42;16.30;99.90
10344;DHT22;5217;43.960;10.954;2022-12-07T02:52:11;16.30;99.90
10344;DHT22;5217;43.960;10.954;2022-12-07T02:54:39;16.30;99.90
10344;DHT22;5217;43.960;10.954;2022-12-07T02:57:22;16.30;99.90
10344;DHT22;5217;43.960;10.954;2022-12-07T03:00:03;16.30;99.90
10344;DHT22;5217;43.960;10.954;2022-12-07T03:02:41;16.20;99.90
10344;DHT22;5217;43.960;10.954;2022-12-07T03:05:26;16.20;99.90
10344;DHT22;5217;43.960;10.954;2022-12-07T03:08:01;16.20;99.90
10344;DHT22;5217;43.960;10.954;2022-12-07T03:10:38;16.20;99.90
10344;DHT22;5217;43.960;10.954;2022-12-07T03:13:12;16.20;99.90
10344;DHT22;5217;43.960;10.954;2022-12-07T03:15:47;16.20;99.90
10344;DHT22;5217;43.960;10.954;2022-12-07T03:18:20;16.20;99.90
10344;DHT22;5217;43.960;10.954;2022-12-07T03:20:51;16.20;99.90
10344;DHT22;5217;43.960;10.954;2022-12-07T03:23:21;16.20;99.90
10344;DHT22;5217;43.960;10.954;2022-12-07T03:25:55;16.20;99.90
10344;DHT22;5217;43.960;10.954;2022-12-07T03:28:31;16.20;99.90
10344;DHT22;5217;43.960;10.954;2022-12-07T03:31:03;16.10;99.90
10344;DHT22;5217;43.960;10.954;2022-12-07T03:33:41;16.20;99.90
10344;DHT22;5217;43.960;10.954;2022-12-07T03:36:14;16.10;99.90
10344;DHT22;5217;43.960;10.954;2022-12-07T03:38:49;16.20;99.90
10344;DHT22;5217;43.960;10.954;2022-12-07T03:41:23;16.10;99.90
10344;DHT22;5217;43.960;10.954;2022-12-07T03:43:54;16.20;99.90
10344;DHT22;5217;43.960;10.954;2022-12-07T03:46:34;16.10;99.90
10344;DHT22;5217;43.960;10.954;2022-12-07T03:49:08;16.10;99.90
10344;DHT22;5217;43.960;10.954;2022-12-07T03:51:43;16.10;99.90
10344;DHT22;5217;43.960;10.954;2022-12-07T03:54:17;16.10;99.90
10344;DHT22;5217;43.960;10.954;2022-12-07T03:56:48;16.10;99.90
10344;DHT22;5217;43.960;10.954;2022-12-07T03:59:18;16.10;99.90
10344;DHT22;5217;43.960;10.954;2022-12-07T04:01:54;16.10;99.90
10344;DHT22;5217;43.960;10.954;2022-12-07T04:04:24;16.10;99.90
10344;DHT22;5217;43.960;10.954;2022-12-07T04:06:53;16.10;99.90
10344;DHT22;5217;43.960;10.954;2022-12-07T04:09:22;16.10;99.90
10344;DHT22;5217;43.960;10.954;2022-12-07T04:11:50;16.10;99.90
10344;DHT22;5217;43.960;10.954;2022-12-07T04:14:19;16.10;99.90
10344;DHT22;5217;43.960;10.954;2022-12-07T04:16:49;16.10;99.90
10344;DHT22;5217;43.960;10.954;2022-12-07T04:19:21;16.10;99.90
10344;DHT22;5217;43.960;10.954;2022-12-07T04:21:50;16.10;99.90
10344;DHT22;5217;43.960;10.954;2022-12-07T04:24:19;16.10;99.90
10344;DHT22;5217;43.960;10.954;2022-12-07T04:26:48;16.10;99.90
10344;DHT22;5217;43.960;10.954;2022-12-07T04:29:17;16.10;99.90
10344;DHT22;5217;43.960;10.954;2022-12-07T04:31:46;16.10;99.90
10344;DHT22;5217;43.960;10.954;2022-12-07T04:34:15;16.10;99.90
10344;DHT22;5217;43.960;10.954;2022-12-07T04:36:46;16.10;99.90
10344;DHT22;5217;43.960;10.954;2022-12-07T04:39:19;16.10;99.90
10344;DHT22;5217;43.960;10.954;2022-12-07T04:41:48;16.10;99.90
10344;DHT22;5217;43.960;10.954;2022-12-07T04:44:18;16.10;99.90
10344;DHT22;5217;43.960;10.954;2022-12-07T04:46:48;16.10;99.90
10344;DHT22;5217;43.960;10.954;2022-12-07T04:49:17;16.10;99.90
10344;DHT22;5217;43.960;10.954;2022-12-07T04:51:47;16.10;99.90
10344;DHT22;5217;43.960;10.954;2022-12-07T04:54:16;16.10;99.90
10344;DHT22;5217;43.960;10.954;2022-12-07T04:56:45;16.10;99.90
10344;DHT22;5217;43.960;10.954;2022-12-07T04:59:15;16.10;99.90
10344;DHT22;5217;43.960;10.954;2022-12-07T05:01:44;16.10;99.90
10344;DHT22;5217;43.960;10.954;2022-12-07T05:04:12;16.10;99.90
10344;DHT22;5217;43.960;10.954;2022-12-07T05:06:43;16.10;99.90
10344;DHT22;5217;43.960;10.954;2022-12-07T05:09:12;16.10;99.90
10344;DHT22;5217;43.960;10.954;2022-12-07T05:11:41;16.10;99.90
10344;DHT22;5217;43.960;10.954;2022-12-07T05:14:13;16.10;99.90
10344;DHT22;5217;43.960;10.954;2022-12-07T05:16:43;16.10;99.90
10344;DHT22;5217;43.960;10.954;2022-12-07T05:19:12;16.10;99.90
10344;DHT22;5217;43.960;10.954;2022-12-07T05:21:41;16.10;99.90
10344;DHT22;5217;43.960;10.954;2022-12-07T05:24:13;16.10;99.90
10344;DHT22;5217;43.960;10.954;2022-12-07T05:26:42;16.10;99.90
10344;DHT22;5217;43.960;10.954;2022-12-07T05:29:12;16.10;99.90
10344;DHT22;5217;43.960;10.954;2022-12-07T05:31:41;16.10;99.90
10344;DHT22;5217;43.960;10.954;2022-12-07T05:34:10;16.10;99.90
10344;DHT22;5217;43.960;10.954;2022-12-07T05:36:39;16.10;99.90
10344;DHT22;5217;43.960;10.954;2022-12-07T05:39:10;16.10;99.90
10344;DHT22;5217;43.960;10.954;2022-12-07T05:41:40;16.10;99.90
10344;DHT22;5217;43.960;10.954;2022-12-07T05:44:26;16.10;99.90
10344;DHT22;5217;43.960;10.954;2022-12-07T05:46:55;16.10;99.90
10344;DHT22;5217;43.960;10.954;2022-12-07T05:49:23;16.10;99.90
10344;DHT22;5217;43.960;10.954;2022-12-07T05:51:52;16.10;99.90
10344;DHT22;5217;43.960;10.954;2022-12-07T05:54:20;16.10;99.90
10344;DHT22;5217;43.960;10.954;2022-12-07T05:56:50;16.10;99.90
10344;DHT22;5217;43.960;10.954;2022-12-07T05:59:19;16.10;99.90
10344;DHT22;5217;43.960;10.954;2022-12-07T06:01:49;16.10;99.90
10344;DHT22;5217;43.960;10.954;2022-12-07T06:04:19;16.10;99.90
10344;DHT22;5217;43.960;10.954;2022-12-07T06:07:00;16.10;99.90
10344;DHT22;5217;43.960;10.954;2022-12-07T06:09:29;16.10;99.90
10344;DHT22;5217;43.960;10.954;2022-12-07T06:12:01;16.10;99.90
10344;DHT22;5217;43.960;10.954;2022-12-07T06:14:48;16.10;99.90
10344;DHT22;5217;43.960;10.954;2022-12-07T06:17:17;16.10;99.90
10344;DHT22;5217;43.960;10.954;2022-12-07T06:19:45;16.10;99.90
10344;DHT22;5217;43.960;10.954;2022-12-07T06:22:14;16.10;99.90
10344;DHT22;5217;43.960;10.954;2022-12-07T06:24:43;16.10;99.90
10344;DHT22;5217;43.960;10.954;2022-12-07T06:27:13;16.10;99.90
10344;DHT22;5217;43.960;10.954;2022-12-07T06:29:42;16.10;99.90
10344;DHT22;5217;43.960;10.954;2022-12-07T06:32:10;16.10;99.90
10344;DHT22;5217;43.960;10.954;2022-12-07T06:34:39;16.10;99.90
10344;DHT22;5217;43.960;10.954;2022-12-07T06:37:07;16.10;99.90
10344;DHT22;5217;43.960;10.954;2022-12-07T06:39:36;16.10;99.90
10344;DHT22;5217;43.960;10.954;2022-12-07T06:42:05;16.10;99.90
10344;DHT22;5217;43.960;10.954;2022-12-07T06:44:34;16.10;99.90
10344;DHT22;5217;43.960;10.954;2022-12-07T06:47:03;16.10;99.90
10344;DHT22;5217;43.960;10.954;2022-12-07T06:49:52;16.10;99.90
10344;DHT22;5217;43.960;10.954;2022-12-07T06:52:20;16.10;99.90
10344;DHT22;5217;43.960;10.954;2022-12-07T06:54:48;16.10;99.90
10344;DHT22;5217;43.960;10.954;2022-12-07T06:57:17;16.00;99.90
10344;DHT22;5217;43.960;10.954;2022-12-07T06:59:48;16.10;99.90
10344;DHT22;5217;43.960;10.954;2022-12-07T07:02:16;16.10;99.90
10344;DHT22;5217;43.960;10.954;2022-12-07T07:04:45;16.10;99.90
10344;DHT22;5217;43.960;10.954;2022-12-07T07:07:13;16.10;99.90
10344;DHT22;5217;43.960;10.954;2022-12-07T07:09:41;16.00;99.90
10344;DHT22;5217;43.960;10.954;2022-12-07T07:12:10;16.00;99.90
10344;DHT22;5217;43.960;10.954;2022-12-07T07:14:38;16.10;99.90
10344;DHT22;5217;43.960;10.954;2022-12-07T07:17:08;16.00;99.90
10344;DHT22;5217;43.960;10.954;2022-12-07T07:19:37;16.00;99.90
10344;DHT22;5217;43.960;10.954;2022-12-07T07:22:05;16.00;99.90
10344;DHT22;5217;43.960;10.954;2022-12-07T07:24:33;16.00;99.90
10344;DHT22;5217;43.960;10.954;2022-12-07T07:27:02;16.00;99.90
10344;DHT22;5217;43.960;10.954;2022-12-07T07:29:30;16.00;99.90
10344;DHT22;5217;43.960;10.954;2022-12-07T07:31:59;16.00;99.90
10344;DHT22;5217;43.960;10.954;2022-12-07T07:34:34;16.00;99.90
10344;DHT22;5217;43.960;10.954;2022-12-07T07:37:02;16.00;99.90
10344;DHT22;5217;43.960;10.954;2022-12-07T07:39:31;16.00;99.90
10344;DHT22;5217;43.960;10.954;2022-12-07T07:41:59;16.00;99.90
10344;DHT22;5217;43.960;10.954;2022-12-07T07:44:28;16.00;99.90
10344;DHT22;5217;43.960;10.954;2022-12-07T07:47:01;16.00;99.90
10344;DHT22;5217;43.960;10.954;2022-12-07T07:49:30;16.00;99.90
10344;DHT22;5217;43.960;10.954;2022-12-07T07:52:00;16.10;99.90
10344;DHT22;5217;43.960;10.954;2022-12-07T07:54:28;16.00;99.90
10344;DHT22;5217;43.960;10.954;2022-12-07T07:56:57;16.10;99.90
10344;DHT22;5217;43.960;10.954;2022-12-07T07:59:25;16.00;99.90
10344;DHT22;5217;43.960;10.954;2022-12-07T08:01:54;16.00;99.90
10344;DHT22;5217;43.960;10.954;2022-12-07T08:04:22;16.10;99.90
10344;DHT22;5217;43.960;10.954;2022-12-07T08:06:51;16.10;99.90
10344;DHT22;5217;43.960;10.954;2022-12-07T08:09:21;16.10;99.90
10344;DHT22;5217;43.960;10.954;2022-12-07T08:11:49;16.10;99.90
10344;DHT22;5217;43.960;10.954;2022-12-07T08:14:17;16.10;99.90
10344;DHT22;5217;43.960;10.954;2022-12-07T08:16:46;16.10;99.90
10344;DHT22;5217;43.960;10.954;2022-12-07T08:19:14;16.10;99.90
10344;DHT22;5217;43.960;10.954;2022-12-07T08:21:42;16.10;99.90
10344;DHT22;5217;43.960;10.954;2022-12-07T08:24:11;16.10;99.90
10344;DHT22;5217;43.960;10.954;2022-12-07T08:26:41;16.10;99.90
10344;DHT22;5217;43.960;10.954;2022-12-07T08:29:09;16.10;99.90
10344;DHT22;5217;43.960;10.954;2022-12-07T08:31:38;16.20;99.90
10344;DHT22;5217;43.960;10.954;2022-12-07T08:34:06;16.20;99.90
10344;DHT22;5217;43.960;10.954;2022-12-07T08:36:36;16.20;99.90
10344;DHT22;5217;43.960;10.954;2022-12-07T08:39:04;16.20;99.90
10344;DHT22;5217;43.960;10.954;2022-12-07T08:41:54;16.20;99.90
10344;DHT22;5217;43.960;10.954;2022-12-07T08:44:23;16.20;99.90
10344;DHT22;5217;43.960;10.954;2022-12-07T08:46:53;16.30;99.90
10344;DHT22;5217;43.960;10.954;2022-12-07T08:49:26;16.30;99.90
10344;DHT22;5217;43.960;10.954;2022-12-07T08:51:56;16.30;99.90
10344;DHT22;5217;43.960;10.954;2022-12-07T08:54:24;16.30;99.90
10344;DHT22;5217;43.960;10.954;2022-12-07T08:56:55;16.30;99.90
10344;DHT22;5217;43.960;10.954;2022-12-07T08:59:26;16.30;99.90
10344;DHT22;5217;43.960;10.954;2022-12-07T09:01:55;16.30;99.90
10344;DHT22;5217;43.960;10.954;2022-12-07T09:04:24;16.40;99.90
10344;DHT22;5217;43.960;10.954;2022-12-07T09:06:54;16.40;99.90
10344;DHT22;5217;43.960;10.954;2022-12-07T09:09:22;16.40;99.90
10344;DHT22;5217;43.960;10.954;2022-12-07T09:11:51;16.40;99.90
10344;DHT22;5217;43.960;10.954;2022-12-07T09:14:21;16.40;99.90
10344;DHT22;5217;43.960;10.954;2022-12-07T09:16:49;16.40;99.90
10344;DHT22;5217;43.960;10.954;2022-12-07T09:19:17;16.50;99.90
10344;DHT22;5217;43.960;10.954;2022-12-07T09:21:46;16.40;99.90
10344;DHT22;5217;43.960;10.954;2022-12-07T09:24:14;16.40;99.90
10344;DHT22;5217;43.960;10.954;2022-12-07T09:26:43;16.40;99.90
10344;DHT22;5217;43.960;10.954;2022-12-07T09:29:11;16.40;99.90
10344;DHT22;5217;43.960;10.954;2022-12-07T09:31:41;16.50;99.90
10344;DHT22;5217;43.960;10.954;2022-12-07T09:34:11;16.50;99.90
10344;DHT22;5217;43.960;10.954;2022-12-07T09:36:39;16.50;99.90
10344;DHT22;5217;43.960;10.954;2022-12-07T09:39:09;16.50;99.90
10344;DHT22;5217;43.960;10.954;2022-12-07T09:41:39;16.50;99.90
10344;DHT22;5217;43.960;10.954;2022-12-07T09:44:11;16.50;99.90
10344;DHT22;5217;43.960;10.954;2022-12-07T09:46:43;16.50;99.90
10344;DHT22;5217;43.960;10.954;2022-12-07T09:49:13;16.50;99.90
10344;DHT22;5217;43.960;10.954;2022-12-07T09:51:42;16.50;99.90
10344;DHT22;5217;43.960;10.954;2022-12-07T09:54:13;16.50;99.90
10344;DHT22;5217;43.960;10.954;2022-12-07T09:56:42;16.60;99.90
10344;DHT22;5217;43.960;10.954;2022-12-07T09:59:14;16.70;99.90
10344;DHT22;5217;43.960;10.954;2022-12-07T10:01:47;16.70;99.90
10344;DHT22;5217;43.960;10.954;2022-12-07T10:04:18;16.70;99.90
10344;DHT22;5217;43.960;10.954;2022-12-07T10:06:48;16.80;99.90
10344;DHT22;5217;43.960;10.954;2022-12-07T10:09:19;16.80;99.90
10344;DHT22;5217;43.960;10.954;2022-12-07T10:12:05;16.80;99.90
10344;DHT22;5217;43.960;10.954;2022-12-07T10:14:37;16.90;99.90
10344;DHT22;5217;43.960;10.954;2022-12-07T10:17:34;16.90;99.90
10344;DHT22;5217;43.960;10.954;2022-12-07T10:20:18;16.90;99.90
10344;DHT22;5217;43.960;10.954;2022-12-07T10:23:01;16.90;99.90
10344;DHT22;5217;43.960;10.954;2022-12-07T10:25:31;17.00;99.90
10344;DHT22;5217;43.960;10.954;2022-12-07T10:30:54;17.20;99.90
10344;DHT22;5217;43.960;10.954;2022-12-07T10:33:38;17.20;99.90
10344;DHT22;5217;43.960;10.954;2022-12-07T10:36:19;17.30;99.90
10344;DHT22;5217;43.960;10.954;2022-12-07T10:38:50;17.30;99.90
10344;DHT22;5217;43.960;10.954;2022-12-07T10:41:18;17.40;99.90
10344;DHT22;5217;43.960;10.954;2022-12-07T10:43:49;17.30;99.90
10344;DHT22;5217;43.960;10.954;2022-12-07T10:46:36;17.30;99.90
10344;DHT22;5217;43.960;10.954;2022-12-07T10:52:25;17.30;99.90
10344;DHT22;5217;43.960;10.954;2022-12-07T10:55:08;17.30;99.90
10344;DHT22;5217;43.960;10.954;2022-12-07T10:57:49;17.40;99.90
10344;DHT22;5217;43.960;10.954;2022-12-07T11:00:23;17.40;99.90
10344;DHT22;5217;43.960;10.954;2022-12-07T11:05:54;17.40;99.90
10344;DHT22;5217;43.960;10.954;2022-12-07T11:08:42;17.40;99.90
10344;DHT22;5217;43.960;10.954;2022-12-07T11:11:18;17.40;99.90
10344;DHT22;5217;43.960;10.954;2022-12-07T11:13:52;17.40;99.90
10344;DHT22;5217;43.960;10.954;2022-12-07T11:16:32;17.40;99.90
10344;DHT22;5217;43.960;10.954;2022-12-07T11:19:32;17.30;99.90
10344;DHT22;5217;43.960;10.954;2022-12-07T11:22:11;17.40;99.90
10344;DHT22;5217;43.960;10.954;2022-12-07T11:24:49;17.40;99.90
10344;DHT22;5217;43.960;10.954;2022-12-07T11:27:24;17.40;99.90
10344;DHT22;5217;43.960;10.954;2022-12-07T11:30:07;17.50;99.90
10344;DHT22;5217;43.960;10.954;2022-12-07T11:33:01;17.40;99.90
10344;DHT22;5217;43.960;10.954;2022-12-07T11:35:39;17.40;99.90
10344;DHT22;5217;43.960;10.954;2022-12-07T11:38:17;17.50;99.90
10344;DHT22;5217;43.960;10.954;2022-12-07T11:40:55;17.70;99.90
10344;DHT22;5217;43.960;10.954;2022-12-07T11:43:54;17.80;99.90
10344;DHT22;5217;43.960;10.954;2022-12-07T11:46:25;17.80;99.90
10344;DHT22;5217;43.960;10.954;2022-12-07T11:49:01;17.90;99.90
10344;DHT22;5217;43.960;10.954;2022-12-07T11:51:34;17.90;99.90
10344;DHT22;5217;43.960;10.954;2022-12-07T11:54:15;17.90;99.90
10344;DHT22;5217;43.960;10.954;2022-12-07T11:56:47;18.00;99.90
10344;DHT22;5217;43.960;10.954;2022-12-07T11:59:22;18.00;99.90
10344;DHT22;5217;43.960;10.954;2022-12-07T12:01:54;18.00;99.90
10344;DHT22;5217;43.960;10.954;2022-12-07T12:04:30;18.00;99.90
10344;DHT22;5217;43.960;10.954;2022-12-07T12:07:00;18.10;99.90
10344;DHT22;5217;43.960;10.954;2022-12-07T12:09:52;18.20;99.90
10344;DHT22;5217;43.960;10.954;2022-12-07T12:12:46;18.20;99.90
10344;DHT22;5217;43.960;10.954;2022-12-07T12:15:47;18.30;99.90
10344;DHT22;5217;43.960;10.954;2022-12-07T12:18:50;18.40;99.90
10344;DHT22;5217;43.960;10.954;2022-12-07T12:21:26;18.30;99.90
10344;DHT22;5217;43.960;10.954;2022-12-07T12:23:58;18.40;99.90
10344;DHT22;5217;43.960;10.954;2022-12-07T12:26:32;18.30;99.90
10344;DHT22;5217;43.960;10.954;2022-12-07T12:29:04;18.40;99.90
10344;DHT22;5217;43.960;10.954;2022-12-07T12:31:36;18.30;99.90
10344;DHT22;5217;43.960;10.954;2022-12-07T12:34:30;18.30;99.90
10344;DHT22;5217;43.960;10.954;2022-12-07T12:37:00;18.40;99.90
10344;DHT22;5217;43.960;10.954;2022-12-07T12:39:28;18.40;99.90
10344;DHT22;5217;43.960;10.954;2022-12-07T12:41:59;18.40;99.90
10344;DHT22;5217;43.960;10.954;2022-12-07T12:47:58;18.50;99.90
10344;DHT22;5217;43.960;10.954;2022-12-07T12:50:32;18.50;99.90
10344;DHT22;5217;43.960;10.954;2022-12-07T12:53:16;18.60;99.90
10344;DHT22;5217;43.960;10.954;2022-12-07T12:56:23;18.60;99.90
10344;DHT22;5217;43.960;10.954;2022-12-07T12:59:25;18.60;99.90
10344;DHT22;5217;43.960;10.954;2022-12-07T13:02:05;18.70;99.90
10344;DHT22;5217;43.960;10.954;2022-12-07T13:04:58;18.70;99.90
10344;DHT22;5217;43.960;10.954;2022-12-07T13:07:58;18.80;99.90
10344;DHT22;5217;43.960;10.954;2022-12-07T13:10:39;18.80;99.90
10344;DHT22;5217;43.960;10.954;2022-12-07T13:13:34;18.80;99.90
10344;DHT22;5217;43.960;10.954;2022-12-07T13:22:49;18.80;99.90
10344;DHT22;5217;43.960;10.954;2022-12-07T13:25:41;18.70;99.40
10344;DHT22;5217;43.960;10.954;2022-12-07T13:28:17;18.70;99.80
10344;DHT22;5217;43.960;10.954;2022-12-07T13:30:53;18.70;99.90
10344;DHT22;5217;43.960;10.954;2022-12-07T13:33:22;18.70;99.90
10344;DHT22;5217;43.960;10.954;2022-12-07T13:35:54;18.70;99.80
10344;DHT22;5217;43.960;10.954;2022-12-07T13:38:27;18.70;99.90
10344;DHT22;5217;43.960;10.954;2022-12-07T13:41:04;18.70;99.90
10344;DHT22;5217;43.960;10.954;2022-12-07T13:43:43;18.70;99.90
10344;DHT22;5217;43.960;10.954;2022-12-07T13:46:11;18.80;99.90
10344;DHT22;5217;43.960;10.954;2022-12-07T13:48:46;18.80;99.90
10344;DHT22;5217;43.960;10.954;2022-12-07T13:51:18;18.90;99.90
10344;DHT22;5217;43.960;10.954;2022-12-07T13:53:49;18.90;99.90
10344;DHT22;5217;43.960;10.954;2022-12-07T13:56:21;18.90;99.90
10344;DHT22;5217;43.960;10.954;2022-12-07T13:58:50;18.80;99.90
10344;DHT22;5217;43.960;10.954;2022-12-07T14:01:18;18.80;99.90
10344;DHT22;5217;43.960;10.954;2022-12-07T14:03:47;18.80;99.90
10344;DHT22;5217;43.960;10.954;2022-12-07T14:06:22;18.80;99.80
10344;DHT22;5217;43.960;10.954;2022-12-07T14:09:08;18.70;99.90
10344;DHT22;5217;43.960;10.954;2022-12-07T14:11:37;18.80;99.90
10344;DHT22;5217;43.960;10.954;2022-12-07T14:14:10;18.70;99.90
10344;DHT22;5217;43.960;10.954;2022-12-07T14:16:39;18.70;99.90
10344;DHT22;5217;43.960;10.954;2022-12-07T14:19:44;18.70;99.90
10344;DHT22;5217;43.960;10.954;2022-12-07T14:22:27;18.70;99.90
10344;DHT22;5217;43.960;10.954;2022-12-07T14:27:52;18.80;99.90
10344;DHT22;5217;43.960;10.954;2022-12-07T14:30:24;18.80;99.90
10344;DHT22;5217;43.960;10.954;2022-12-07T14:32:55;18.80;99.90
10344;DHT22;5217;43.960;10.954;2022-12-07T14:35:26;18.80;99.80
10344;DHT22;5217;43.960;10.954;2022-12-07T14:37:55;18.80;99.60
10344;DHT22;5217;43.960;10.954;2022-12-07T14:40:26;18.80;99.30
10344;DHT22;5217;43.960;10.954;2022-12-07T14:42:59;18.70;99.30
10344;DHT22;5217;43.960;10.954;2022-12-07T14:45:29;18.70;99.30
10344;DHT22;5217;43.960;10.954;2022-12-07T14:47:57;18.70;99.40
10344;DHT22;5217;43.960;10.954;2022-12-07T14:50:50;18.70;99.70
10344;DHT22;5217;43.960;10.954;2022-12-07T14:53:40;18.70;99.90
10344;DHT22;5217;43.960;10.954;2022-12-07T14:56:09;18.60;99.90
10344;DHT22;5217;43.960;10.954;2022-12-07T14:58:38;18.60;99.90
10344;DHT22;5217;43.960;10.954;2022-12-07T15:01:06;18.50;99.90
10344;DHT22;5217;43.960;10.954;2022-12-07T15:03:35;18.50;99.90
10344;DHT22;5217;43.960;10.954;2022-12-07T15:06:06;18.50;99.90
10344;DHT22;5217;43.960;10.954;2022-12-07T15:08:35;18.50;99.90
10344;DHT22;5217;43.960;10.954;2022-12-07T15:11:03;18.40;99.90
10344;DHT22;5217;43.960;10.954;2022-12-07T15:13:32;18.40;99.90
10344;DHT22;5217;43.960;10.954;2022-12-07T15:16:19;18.40;99.90
10344;DHT22;5217;43.960;10.954;2022-12-07T15:18:48;18.40;99.90
10344;DHT22;5217;43.960;10.954;2022-12-07T15:21:38;18.40;99.90
10344;DHT22;5217;43.960;10.954;2022-12-07T15:24:08;18.40;99.90
10344;DHT22;5217;43.960;10.954;2022-12-07T15:26:37;18.30;99.90
10344;DHT22;5217;43.960;10.954;2022-12-07T15:29:06;18.30;99.90
10344;DHT22;5217;43.960;10.954;2022-12-07T15:31:35;18.30;99.90
10344;DHT22;5217;43.960;10.954;2022-12-07T15:34:24;18.30;99.90
10344;DHT22;5217;43.960;10.954;2022-12-07T15:36:54;18.20;99.90
10344;DHT22;5217;43.960;10.954;2022-12-07T15:39:23;18.10;99.90
10344;DHT22;5217;43.960;10.954;2022-12-07T15:41:51;18.10;99.90
10344;DHT22;5217;43.960;10.954;2022-12-07T15:44:19;18.10;99.90
10344;DHT22;5217;43.960;10.954;2022-12-07T15:47:05;18.10;99.90
10344;DHT22;5217;43.960;10.954;2022-12-07T15:49:34;18.00;99.90
10344;DHT22;5217;43.960;10.954;2022-12-07T15:52:04;18.00;99.90
10344;DHT22;5217;43.960;10.954;2022-12-07T15:54:32;17.90;99.90
10344;DHT22;5217;43.960;10.954;2022-12-07T15:57:01;17.90;99.90
10344;DHT22;5217;43.960;10.954;2022-12-07T15:59:29;17.90;99.90
10344;DHT22;5217;43.960;10.954;2022-12-07T16:01:57;17.80;99.90
10344;DHT22;5217;43.960;10.954;2022-12-07T16:04:27;17.80;99.90
10344;DHT22;5217;43.960;10.954;2022-12-07T16:06:56;17.80;99.90
10344;DHT22;5217;43.960;10.954;2022-12-07T16:09:25;17.80;99.90
10344;DHT22;5217;43.960;10.954;2022-12-07T16:11:54;17.70;99.90
10344;DHT22;5217;43.960;10.954;2022-12-07T16:14:23;17.70;99.90
10344;DHT22;5217;43.960;10.954;2022-12-07T16:16:51;17.60;99.90
10344;DHT22;5217;43.960;10.954;2022-12-07T16:19:20;17.70;99.90
10344;DHT22;5217;43.960;10.954;2022-12-07T16:21:48;17.60;99.90
10344;DHT22;5217;43.960;10.954;2022-12-07T16:24:16;17.60;99.90
10344;DHT22;5217;43.960;10.954;2022-12-07T16:26:46;17.60;99.90
10344;DHT22;5217;43.960;10.954;2022-12-07T16:29:17;17.50;99.90
10344;DHT22;5217;43.960;10.954;2022-12-07T16:31:46;17.50;99.90
10344;DHT22;5217;43.960;10.954;2022-12-07T16:34:15;17.50;99.90